Prudhoe Bay, AK

8:34 PM AKST on January 30, 2015 (GMT -0900)
Deadhorse | Change Station
CLOSE
Current Station
Airport
Location: Deadhorse,
Elevation: 59 ft
Nearby Weather Stations
Active Advisory: Winter Weather Advisory

Elev 59 ft 70.19 °N, 148.47 °W | Updated 23 minutes ago

Light Snow
Light Snow Mist Blowing Snow
17 °F
Feels Like -1 °F
N
25
Wind Variable Wind from WSW

Today
High -- | Low -- °F
--% Chance of Precip.
Yesterday
High -- | Low -- °F
Precip. -- in
10:53 AM 3:22 PM
Waxing Gibbous, 87% visible
Pressure 30.29 in
Visibility 3.0 miles
Clouds Overcast 2000 ft
Windchill -1 °F
Dew Point 13 °F
Humidity 84%
Rainfall 0.00 in
Snow Depth Not available.
UV 0 out of 12
Pollen Not available.
Air Quality Not available.
Flu Activity Not available.
SPECI PASC 310511Z 25022KT 3SM -SN BR BLSN OVC020 M08/M11 A3029 RMK AO2 PK WND 24027/0502 SNB00 P0000 T10831106

More Conditions Fewer Conditions

Pressure 30.29 in
Visibility 3.0 miles
Clouds Overcast 2000 ft
Windchill -1 °F
Dew Point 13 °F
Humidity 84%
Rainfall 0.00 in
Snow Depth Not available.
UV 0 out of 12
Pollen Not available.
Air Quality Not available.
Flu Activity Not available.
SPECI PASC 310511Z 25022KT 3SM -SN BR BLSN OVC020 M08/M11 A3029 RMK AO2 PK WND 24027/0502 SNB00 P0000 T10831106

More Conditions Fewer Conditions

10-Day Weather Forecast

Almanac

Astronomy

Jan. 30, 2015 Rise Set
Actual Time
Civil Twilight
Nautical Twilight
Astronomical Twilight
Moon
Length of Visible Light
Length of Day
Tomorrow will be .
, % of the Moon is Illuminated

Today's Extremes

State Highs State Lows

Community

WunderPhotos

Upload Photos

1,792,005 photos uploaded!

WunderBlogs® & News

Nearby

Air Quality

  Air Quality AQ Index Pollutant
Not available.

Snow Depth

Station Depth Elevation

Earthquake Activity

City Distance Mag. Time & Date
Minimum magnitude displayed is 2.5.

Coastal Water Temperatures

Place Temperature

Nearby Weather Stations